createdAt,value
2022-10-22T00:00:02.851Z,85
2022-10-22T00:20:02.321Z,85
2022-10-22T00:40:02.815Z,85
2022-10-22T01:00:03.226Z,85
2022-10-22T01:20:02.543Z,84
2022-10-22T01:40:02.849Z,85
2022-10-22T02:00:03.185Z,85
2022-10-22T02:20:02.663Z,85
2022-10-22T02:40:02.905Z,85
2022-10-22T03:00:02.324Z,85
2022-10-22T03:20:03.420Z,85
2022-10-22T03:40:02.930Z,85
2022-10-22T04:00:02.376Z,85
2022-10-22T04:20:03.082Z,85
2022-10-22T04:40:02.511Z,85
2022-10-22T05:00:02.977Z,85
2022-10-22T05:20:03.249Z,85
2022-10-22T05:40:30.317Z,85
2022-10-22T06:00:02.935Z,85
2022-10-22T06:20:02.525Z,85
2022-10-22T06:40:03.130Z,86
2022-10-22T07:00:02.395Z,85
2022-10-22T07:20:02.982Z,85
2022-10-22T07:40:04.312Z,85
2022-10-22T08:00:02.845Z,85
2022-10-22T08:20:02.313Z,85
2022-10-22T08:40:02.740Z,85
2022-10-22T09:00:03.350Z,85
2022-10-22T09:20:03.481Z,85
2022-10-22T09:40:03.020Z,85
2022-10-22T10:00:02.630Z,85
2022-10-22T10:20:04.509Z,85
2022-10-22T10:40:03.312Z,85
2022-10-22T11:00:02.789Z,84
2022-10-22T11:20:02.457Z,84
2022-10-22T11:40:02.990Z,84
2022-10-22T12:00:02.400Z,83
2022-10-22T12:20:03.407Z,83
2022-10-22T12:40:02.865Z,82
2022-10-22T13:00:03.459Z,80
2022-10-22T13:20:03.104Z,79
2022-10-22T13:40:02.558Z,78
2022-10-22T14:00:03.202Z,78
2022-10-22T14:20:02.995Z,77
2022-10-22T14:40:02.720Z,77
2022-10-22T15:00:03.297Z,76
2022-10-22T15:20:04.189Z,75
2022-10-22T15:40:02.720Z,75
2022-10-22T16:00:03.180Z,76
2022-10-22T16:20:02.825Z,77
2022-10-22T16:40:08.391Z,77
2022-10-22T17:00:02.955Z,78
2022-10-22T17:20:02.814Z,78
2022-10-22T17:40:03.239Z,79
2022-10-22T18:00:02.848Z,79
2022-10-22T18:20:02.689Z,80
2022-10-22T18:40:03.226Z,80
2022-10-22T19:00:02.583Z,81
2022-10-22T19:20:02.441Z,81
2022-10-22T19:40:02.906Z,81
2022-10-22T20:00:02.708Z,82
2022-10-22T20:20:03.298Z,82
2022-10-22T20:40:02.929Z,82
2022-10-22T21:00:02.557Z,82
2022-10-22T21:20:02.451Z,83
2022-10-22T21:40:02.862Z,83
2022-10-22T22:00:03.417Z,84
2022-10-22T22:20:03.075Z,84
2022-10-22T22:40:02.518Z,84
2022-10-22T23:00:02.755Z,84
2022-10-22T23:20:02.583Z,84
2022-10-22T23:40:02.656Z,84
